PTAO2: Poteau River, Poteau, OK

                                SHEF ID:       PTAO2     Poteau River at Poteau, OK
STATION TYPE:
Regulating: Stage = 20.00, Flow = 7395

PRECIP STAGE RIV-FLOW VOLTAGE BAT-LOAD
in ft cfs volt volt
Ccp-Rev Ccp-Rev Ccp-Rev Ccp-Rev Ccp-Rev
(America/Chicago)
07/01 00:00 0.01 17.47 5923 12.90 12.31
07/01 01:00 0.00 17.49 5931 12.88 12.31
07/01 02:00 0.00 17.45 5915 12.87 12.29
07/01 03:00 0.00 17.47 5923 12.86 12.30
07/01 04:00 0.00 17.46 5919 12.85 12.27
07/01 05:00 0.00 17.48 5927 12.84 12.26
07/01 06:00 0.00 17.46 5919 12.84 12.25
07/01 07:00 0.00 17.44 5910 12.91 12.30
07/01 08:00 0.00 17.44 5910 13.93 12.66
07/01 09:00 0.00 17.45 5915 13.74 12.90
07/01 10:00 0.00 17.45 5915 13.22 12.70
07/01 11:00 0.00 17.43 5906 13.08 12.48
07/01 12:00 0.00 17.42 5902 13.02 12.41
07/01 13:00 0.00 17.41 5898 13.01 12.40
07/01 14:00 0.00 17.41 5898 13.05 12.40
07/01 15:00 0.00 17.39 5890 13.02 12.44
07/01 16:00 0.00 17.40 5894 12.95 12.36
07/01 17:00 0.00 17.38 5886 12.93 12.31
07/01 18:00 0.00 17.37 5882 12.91 12.30
07/01 19:00 0.00 17.35 5874 13.06 12.36
07/01 20:00 0.00 17.35 5874 13.10 12.50
07/01 21:00 0.00 17.34 5869 12.93 12.35
07/01 22:00 0.00 17.35 5874 12.86 12.28
07/01 23:00 0.00 17.33 5865 12.85 12.28
Data processed at Wed 02Jul2025 04:48 GMT

Parsing this webpage?

Checkout our new Data API! CWMSDataAPI (CDA)

Timeseries IDs (TSIDs)

TSIDs used from left to right in the data table
POTE.Precip-Inc.Total.1Hour.1Hour.Ccp-Rev
POTE.Stage.Inst.1Hour.0.Ccp-Rev
POTE.Flow.Inst.1Hour.0.Ccp-Rev
POTE.Volt-Battery.Inst.1Hour.0.Ccp-Rev
POTE.Volt-Battery Load.Inst.1Hour.0.Ccp-Rev

                            

All information presented herein is the property of the government of the United States of America and may be revised or deleted at any time without prior notice. Dissemination of this information without the expressed written consent of the Public Affairs Office, Tulsa District U.S. Army Corps of Engineers is strictly prohibited. These data are gathered electronically and, as presented, have NOT undergone any form of quality control. These data are NOT guaranteed to be valid or correct.